Time;durP1;ratioP1;P1;durP2;ratioP2;P2;SDS_P1;SDS_P2;PMS_P1;PMS_P2;Temp;Humidity;BMP_temperature;BMP_pressure;BME280_temperature;BME280_humidity;BME280_pressure;Samples;Min_cycle;Max_cycle;Signal;HPM_P1;HPM_P2
2021/01/04 00:00:26;;;;;;;23.27;12.70;;;8.60;88.70;;;;;;5093326;28;20479;-50
2021/01/04 00:03:01;;;;;;;14.00;8.73;;;8.60;88.40;;;;;;5093816;28;20032;-49
2021/01/04 00:05:31;;;;;;;14.20;8.82;;;8.60;88.70;;;;;;5097079;28;20375;-49
2021/01/04 00:08:09;;;;;;;11.27;7.55;;;8.70;88.40;;;;;;5097610;28;20024;-48
2021/01/04 00:11:06;;;;;;;9.50;5.97;;;8.70;88.20;;;;;;5097552;28;20093;-49
2021/01/04 00:13:44;;;;;;;8.02;4.97;;;8.80;87.60;;;;;;5097365;28;20052;-51
2021/01/04 00:16:28;;;;;;;12.05;8.32;;;8.70;87.50;;;;;;5097490;28;20081;-48
2021/01/04 00:19:13;;;;;;;7.50;4.95;;;8.70;87.90;;;;;;5097207;28;20040;-48
2021/01/04 00:21:55;;;;;;;8.23;5.05;;;8.60;88.10;;;;;;5096901;28;20126;-48
2021/01/04 00:24:27;;;;;;;11.35;7.50;;;8.50;88.10;;;;;;5096568;28;20150;-50
2021/01/04 00:27:22;;;;;;;11.50;6.97;;;8.50;88.60;;;;;;5096738;28;20047;-49
2021/01/04 00:29:50;;;;;;;8.65;6.13;;;8.50;88.50;;;;;;5097090;28;20577;-50
2021/01/04 00:32:33;;;;;;;9.25;6.35;;;8.40;89.10;;;;;;5097161;28;20099;-51
2021/01/04 00:35:00;;;;;;;12.98;8.40;;;8.40;88.90;;;;;;5097080;28;20036;-49
2021/01/04 00:37:48;;;;;;;16.70;10.57;;;8.20;89.50;;;;;;5096867;28;20103;-50
2021/01/04 00:40:40;;;;;;;13.50;8.65;;;8.30;90.00;;;;;;5096999;28;20061;-49
2021/01/04 00:43:28;;;;;;;13.50;8.88;;;8.30;90.00;;;;;;5096131;28;20519;-48
2021/01/04 00:45:54;;;;;;;15.70;8.95;;;8.20;89.90;;;;;;5074113;28;20412;-51
2021/01/04 00:49:03;;;;;;;10.90;8.07;;;8.30;90.00;;;;;;5074140;28;20036;-50
2021/01/04 00:51:42;;;;;;;11.20;6.50;;;8.30;89.70;;;;;;5072061;28;20071;-48
2021/01/04 00:54:52;;;;;;;10.43;6.90;;;8.40;89.60;;;;;;5074127;28;20021;-48
2021/01/04 00:57:44;;;;;;;10.15;6.85;;;8.40;89.10;;;;;;5058447;28;20093;-50
2021/01/04 01:00:23;;;;;;;10.32;6.55;;;8.40;89.10;;;;;;5057073;28;20041;-50
2021/01/04 01:03:31;;;;;;;10.88;6.90;;;8.50;89.30;;;;;;5073932;28;20396;-48
2021/01/04 01:06:22;;;;;;;9.95;6.47;;;8.60;88.60;;;;;;5073590;28;20086;-47
2021/01/04 01:08:53;;;;;;;9.43;6.10;;;8.70;87.90;;;;;;5073855;28;20033;-50
2021/01/04 01:11:51;;;;;;;8.73;5.60;;;8.70;87.50;;;;;;5073449;28;20397;-49
2021/01/04 01:14:47;;;;;;;20.77;12.60;;;8.80;86.60;;;;;;5033481;28;20041;-50
2021/01/04 01:17:58;;;;;;;21.20;11.98;;;8.60;87.50;;;;;;4974543;28;20479;-48
2021/01/04 01:20:24;;;;;;;16.77;10.45;;;8.60;87.90;;;;;;4943432;28;20101;-49
2021/01/04 01:22:51;;;;;;;13.10;8.32;;;8.60;87.80;;;;;;4974754;28;20045;-50
2021/01/04 01:25:25;;;;;;;11.10;7.18;;;8.60;87.50;;;;;;4974973;28;20039;-49
2021/01/04 01:28:12;;;;;;;8.55;5.30;;;8.60;88.00;;;;;;4974512;28;20039;-48
2021/01/04 01:30:49;;;;;;;7.97;5.10;;;8.50;87.70;;;;;;4974661;28;20105;-51
2021/01/04 01:33:26;;;;;;;7.30;4.90;;;8.40;88.50;;;;;;4974691;28;20030;-50
2021/01/04 01:36:10;;;;;;;6.93;4.60;;;8.40;89.00;;;;;;4958256;28;20067;-48
2021/01/04 01:39:13;;;;;;;6.32;5.07;;;8.50;88.90;;;;;;4974342;28;20487;-48
2021/01/04 01:42:15;;;;;;;7.00;5.28;;;8.50;88.90;;;;;;4974252;28;20074;-49
2021/01/04 01:44:57;;;;;;;8.15;5.00;;;8.50;89.20;;;;;;4974444;28;20039;-50
2021/01/04 01:47:57;;;;;;;5.70;4.05;;;8.50;88.80;;;;;;4974185;28;20053;-49
2021/01/04 01:50:38;;;;;;;7.88;4.70;;;8.50;89.00;;;;;;4913494;29;20051;-48
2021/01/04 01:53:25;;;;;;;8.15;5.18;;;8.40;89.00;;;;;;4901817;28;20033;-49
2021/01/04 01:55:50;;;;;;;9.65;4.90;;;8.50;89.00;;;;;;4973926;28;20081;-49
2021/01/04 01:58:39;;;;;;;9.15;6.20;;;8.50;89.00;;;;;;4973773;28;20450;-49
2021/01/04 02:01:18;;;;;;;5.47;4.30;;;8.40;89.20;;;;;;4971883;28;20041;-49
2021/01/04 02:04:06;;;;;;;7.82;4.47;;;8.20;90.20;;;;;;4971307;28;20039;-50
2021/01/04 02:06:43;;;;;;;8.15;4.50;;;8.00;90.90;;;;;;4973955;28;20047;-50
2021/01/04 02:09:35;;;;;;;9.15;4.60;;;8.10;90.70;;;;;;4974049;28;20030;-48
2021/01/04 02:12:16;;;;;;;9.07;5.75;;;8.20;90.60;;;;;;4970500;28;20142;-52
2021/01/04 02:15:10;;;;;;;9.18;5.32;;;8.30;90.30;;;;;;4973972;28;20034;-48
2021/01/04 02:18:10;;;;;;;7.32;4.47;;;8.40;90.00;;;;;;4978316;28;20422;-50
2021/01/04 02:20:48;;;;;;;7.05;4.13;;;8.40;89.90;;;;;;4993053;28;20050;-51
2021/01/04 02:23:25;;;;;;;6.55;3.88;;;8.50;89.70;;;;;;4976783;28;20037;-48
2021/01/04 02:25:54;;;;;;;5.93;4.55;;;8.30;90.00;;;;;;5004369;28;20044;-49
2021/01/04 02:28:24;;;;;;;10.40;5.80;;;8.30;90.00;;;;;;5073994;28;20456;-50
2021/01/04 02:30:50;;;;;;;10.30;6.28;;;8.40;90.10;;;;;;5074773;28;20376;-49
2021/01/04 02:33:18;;;;;;;8.90;5.70;;;8.30;90.30;;;;;;5074140;28;20032;-48
2021/01/04 02:35:45;;;;;;;7.75;5.70;;;8.30;90.20;;;;;;5074326;28;20085;-48
2021/01/04 02:38:12;;;;;;;8.82;6.43;;;8.00;90.50;;;;;;5074087;28;20460;-49
2021/01/04 02:40:38;;;;;;;9.40;5.20;;;7.70;91.10;;;;;;5074112;28;20017;-49
2021/01/04 02:43:04;;;;;;;8.43;5.78;;;7.70;91.30;;;;;;5074299;28;20026;-49
2021/01/04 02:45:32;;;;;;;11.18;7.15;;;7.70;91.40;;;;;;5039058;28;20033;-50
2021/01/04 02:48:20;;;;;;;9.88;6.53;;;7.90;91.30;;;;;;5038402;28;20059;-48
2021/01/04 02:50:56;;;;;;;9.38;6.05;;;8.20;90.80;;;;;;5074189;28;20468;-48
2021/01/04 02:53:59;;;;;;;10.77;6.68;;;8.30;90.60;;;;;;5073941;28;20104;-49
2021/01/04 02:56:33;;;;;;;13.55;8.52;;;8.30;90.40;;;;;;5073638;28;20028;-49
2021/01/04 02:59:08;;;;;;;15.00;9.23;;;8.40;90.40;;;;;;5073817;28;20103;-49
2021/01/04 03:01:40;;;;;;;11.60;7.88;;;8.20;90.40;;;;;;5071858;28;20032;-48
2021/01/04 03:04:10;;;;;;;13.00;6.65;;;8.20;90.60;;;;;;5073644;28;20073;-48
2021/01/04 03:07:00;;;;;;;9.68;6.35;;;7.90;90.90;;;;;;5073975;28;20342;-48
2021/01/04 03:09:31;;;;;;;7.93;4.80;;;7.90;91.20;;;;;;5073595;28;20035;-50
2021/01/04 03:11:58;;;;;;;7.88;5.35;;;7.70;91.40;;;;;;5073698;28;20029;-49
2021/01/04 03:14:40;;;;;;;7.30;5.28;;;7.80;91.60;;;;;;5073746;28;20036;-50
2021/01/04 03:17:19;;;;;;;8.85;5.20;;;7.90;91.60;;;;;;5073385;28;20403;-50
2021/01/04 03:19:49;;;;;;;10.65;5.70;;;8.00;91.20;;;;;;5073455;28;20041;-49
2021/01/04 03:22:16;;;;;;;7.50;4.55;;;8.20;90.90;;;;;;5073801;28;20036;-48
2021/01/04 03:24:50;;;;;;;6.05;4.68;;;8.20;90.50;;;;;;5073456;28;20041;-49
2021/01/04 03:27:24;;;;;;;7.15;4.55;;;8.30;90.40;;;;;;5073522;28;20107;-50
2021/01/04 03:29:50;;;;;;;8.00;5.10;;;8.30;90.20;;;;;;5031338;28;20042;-49
2021/01/04 03:32:16;;;;;;;9.70;5.28;;;7.90;90.60;;;;;;5031171;28;20056;-48
2021/01/04 03:34:41;;;;;;;8.05;5.47;;;7.50;91.60;;;;;;5031306;28;20069;-48
2021/01/04 03:37:07;;;;;;;7.13;5.68;;;7.40;92.30;;;;;;4965929;28;20072;-50
2021/01/04 03:39:33;;;;;;;8.43;5.40;;;7.20;92.60;;;;;;5013255;28;20473;-51
2021/01/04 03:42:00;;;;;;;8.50;5.72;;;7.10;92.80;;;;;;5031324;28;20026;-48
2021/01/04 03:44:28;;;;;;;7.93;5.20;;;7.10;93.20;;;;;;5031253;28;20052;-49
2021/01/04 03:46:54;;;;;;;8.52;5.60;;;7.20;93.10;;;;;;5030921;28;20548;-50
2021/01/04 03:49:20;;;;;;;8.98;5.72;;;7.20;92.80;;;;;;5031297;28;20060;-50
2021/01/04 03:51:54;;;;;;;16.75;7.72;;;7.20;92.70;;;;;;5031193;28;20091;-49
2021/01/04 03:54:20;;;;;;;13.35;7.13;;;7.30;92.60;;;;;;5014632;28;20040;-50
2021/01/04 03:56:46;;;;;;;12.48;6.72;;;7.30;92.60;;;;;;5031253;28;20034;-50
2021/01/04 03:59:13;;;;;;;11.55;7.30;;;7.30;92.50;;;;;;5014379;28;20071;-48
2021/01/04 04:01:39;;;;;;;10.65;7.10;;;7.10;92.80;;;;;;5067059;28;20117;-50
2021/01/04 04:04:04;;;;;;;10.43;6.25;;;7.30;92.70;;;;;;5073581;28;20048;-49
2021/01/04 04:06:30;;;;;;;7.65;5.63;;;7.10;93.00;;;;;;5073663;28;20024;-49
2021/01/04 04:08:56;;;;;;;7.82;5.15;;;7.20;93.10;;;;;;5073070;28;20415;-51
2021/01/04 04:11:22;;;;;;;8.98;5.07;;;7.20;93.10;;;;;;5073162;28;20052;-50
2021/01/04 04:13:47;;;;;;;7.80;5.18;;;7.10;93.30;;;;;;5073473;28;20024;-48
2021/01/04 04:16:15;;;;;;;8.93;5.28;;;7.10;93.30;;;;;;5073104;28;20033;-49
2021/01/04 04:18:40;;;;;;;9.80;6.10;;;7.40;92.80;;;;;;5054217;28;20116;-50
2021/01/04 04:21:06;;;;;;;8.43;5.60;;;7.40;92.40;;;;;;5073080;28;20101;-50
2021/01/04 04:23:32;;;;;;;11.75;7.07;;;7.40;92.60;;;;;;5071999;28;20100;-50
2021/01/04 04:25:57;;;;;;;13.63;9.07;;;7.40;92.60;;;;;;5054238;28;20075;-49
2021/01/04 04:28:23;;;;;;;12.40;7.68;;;7.50;92.50;;;;;;5072958;28;20021;-50
2021/01/04 04:30:49;;;;;;;10.27;7.03;;;7.40;93.00;;;;;;5073243;28;20020;-50
2021/01/04 04:33:15;;;;;;;8.52;6.20;;;7.40;93.00;;;;;;5053949;28;20043;-49
2021/01/04 04:35:40;;;;;;;8.98;5.60;;;7.40;93.10;;;;;;5088829;28;20062;-48
2021/01/04 04:38:06;;;;;;;11.95;6.25;;;7.00;93.70;;;;;;5091331;28;20057;-49
2021/01/04 04:40:33;;;;;;;10.45;6.90;;;7.00;93.90;;;;;;5091495;28;20016;-50
2021/01/04 04:43:09;;;;;;;11.75;6.25;;;7.10;93.90;;;;;;5091832;28;20028;-50
2021/01/04 04:45:35;;;;;;;11.38;7.65;;;7.00;94.20;;;;;;5091974;28;20037;-51
2021/01/04 04:48:20;;;;;;;11.65;7.38;;;7.10;94.10;;;;;;5092022;28;20028;-49
2021/01/04 04:50:49;;;;;;;10.18;6.70;;;7.20;93.80;;;;;;5095339;28;20375;-49
2021/01/04 04:53:33;;;;;;;8.80;5.15;;;7.30;93.70;;;;;;5094853;28;20417;-51
2021/01/04 04:56:43;;;;;;;7.20;4.90;;;7.20;93.60;;;;;;5097267;28;20036;-48
2021/01/04 04:59:40;;;;;;;7.35;5.70;;;7.30;93.40;;;;;;5080554;28;20048;-49
2021/01/04 05:02:12;;;;;;;9.13;5.32;;;7.30;93.40;;;;;;5096410;28;20032;-51
2021/01/04 05:04:52;;;;;;;;;;;7.30;93.00;;;;;;5094939;28;20118;-50
2021/01/04 05:07:33;;;;;;;8.05;5.50;;;7.20;93.20;;;;;;5096849;28;19904;-48
2021/01/04 05:10:08;;;;;;;7.20;4.80;;;7.20;93.30;;;;;;5096039;28;20032;-48
2021/01/04 05:12:41;;;;;;;8.90;4.90;;;7.00;93.50;;;;;;5096317;28;20093;-50
2021/01/04 05:15:17;;;;;;;6.35;4.72;;;7.10;93.30;;;;;;5096671;28;20181;-50
2021/01/04 05:18:04;;;;;;;8.88;5.43;;;7.10;93.30;;;;;;5060048;28;20067;-48
2021/01/04 05:21:01;;;;;;;8.73;4.90;;;7.00;93.30;;;;;;5096099;28;20044;-49
2021/01/04 05:23:40;;;;;;;7.50;4.82;;;7.00;93.50;;;;;;5093634;28;20078;-48
2021/01/04 05:26:19;;;;;;;8.65;3.42;;;6.70;94.10;;;;;;5096210;28;20107;-48
2021/01/04 05:29:05;;;;;;;6.28;4.55;;;6.60;94.30;;;;;;5094810;28;20035;-48
2021/01/04 05:31:44;;;;;;;11.50;7.53;;;6.70;94.10;;;;;;5095058;28;20085;-50
2021/01/04 05:34:18;;;;;;;20.20;10.25;;;6.90;93.80;;;;;;5094832;28;20426;-48
2021/01/04 05:36:49;;;;;;;24.58;13.93;;;7.10;93.30;;;;;;5094669;28;20024;-49
2021/01/04 05:39:21;;;;;;;12.50;8.38;;;7.00;93.10;;;;;;5092194;28;20043;-49
2021/01/04 05:41:47;;;;;;;;;;;7.20;92.90;;;;;;5095079;28;20032;-48
2021/01/04 05:44:29;;;;;;;13.25;9.77;;;7.30;92.60;;;;;;5095162;28;20344;-48
2021/01/04 05:46:55;;;;;;;;;;;;;;;;;;5095794;28;20074;-49
2021/01/04 05:49:39;;;;;;;11.80;8.00;;;7.40;91.80;;;;;;5093677;28;19908;-50
2021/01/04 05:52:05;;;;;;;13.50;8.23;;;7.20;92.80;;;;;;5095672;28;20104;-49
2021/01/04 05:54:33;;;;;;;9.20;6.85;;;7.00;93.00;;;;;;5095743;28;20091;-49
2021/01/04 05:57:14;;;;;;;9.88;6.90;;;6.90;93.50;;;;;;5095581;28;20460;-49
2021/01/04 05:59:46;;;;;;;10.18;6.38;;;6.90;93.50;;;;;;5095220;28;20367;-48
2021/01/04 06:02:19;;;;;;;10.82;8.02;;;6.80;93.80;;;;;;5094396;28;20115;-49
2021/01/04 06:04:45;;;;;;;10.18;6.82;;;6.90;93.90;;;;;;5095473;28;20028;-49
2021/01/04 06:07:11;;;;;;;11.25;7.47;;;6.90;93.90;;;;;;5076450;28;20119;-49
2021/01/04 06:09:37;;;;;;;11.63;8.43;;;7.10;93.60;;;;;;5095142;28;20050;-52
2021/01/04 06:12:15;;;;;;;14.38;9.90;;;7.00;93.30;;;;;;5095714;28;20019;-49
2021/01/04 06:14:41;;;;;;;17.50;11.88;;;7.20;93.40;;;;;;5077596;28;20085;-52
2021/01/04 06:17:29;;;;;;;21.33;13.52;;;7.20;93.30;;;;;;5095043;28;20080;-49
2021/01/04 06:20:01;;;;;;;43.42;26.40;;;7.30;93.00;;;;;;5092706;28;20545;-49
2021/01/04 06:22:29;;;;;;;;;;;7.40;93.20;;;;;;5095319;28;20036;-50
2021/01/04 06:25:07;;;;;;;22.63;15.98;;;7.40;93.10;;;;;;5094620;28;19908;-45
2021/01/04 06:27:39;;;;;;;26.23;18.50;;;7.50;92.80;;;;;;5072196;28;20392;-47
2021/01/04 06:30:18;;;;;;;22.63;17.65;;;7.60;92.80;;;;;;5072107;28;20168;-50
2021/01/04 06:32:46;;;;;;;22.42;14.20;;;7.80;92.50;;;;;;5072289;28;20029;-49
2021/01/04 06:35:28;;;;;;;20.30;13.45;;;7.90;92.20;;;;;;5072275;28;20035;-49
2021/01/04 06:38:10;;;;;;;16.23;10.43;;;8.00;91.90;;;;;;5054878;28;20041;-50
2021/01/04 06:40:44;;;;;;;16.20;10.90;;;8.10;91.80;;;;;;5072214;28;20067;-51
2021/01/04 06:43:28;;;;;;;14.98;9.77;;;8.20;91.70;;;;;;5072111;28;20032;-50
2021/01/04 06:46:13;;;;;;;17.40;11.70;;;8.20;91.50;;;;;;5071617;28;20048;-50
2021/01/04 06:48:53;;;;;;;25.48;18.05;;;8.10;91.50;;;;;;5071828;28;20040;-51
2021/01/04 06:51:56;;;;;;;25.35;19.10;;;8.20;91.70;;;;;;5021960;28;20476;-51
2021/01/04 06:54:31;;;;;;;45.40;34.63;;;8.10;91.70;;;;;;5071935;28;20039;-50
2021/01/04 06:57:15;;;;;;;25.55;18.35;;;8.30;91.60;;;;;;5021734;28;20040;-50
2021/01/04 07:00:07;;;;;;;18.27;13.35;;;8.40;91.20;;;;;;5093855;28;20082;-50
2021/01/04 07:03:04;;;;;;;17.52;14.35;;;8.50;90.90;;;;;;5094305;28;20039;-50
2021/01/04 07:06:04;;;;;;;14.52;12.18;;;8.40;90.80;;;;;;5051748;28;20060;-50
2021/01/04 07:09:03;;;;;;;18.15;11.80;;;8.40;91.40;;;;;;5051430;28;20032;-50
2021/01/04 07:11:34;;;;;;;21.77;14.45;;;8.30;91.40;;;;;;5051221;28;20164;-50
2021/01/04 07:14:33;;;;;;;29.63;19.90;;;8.30;91.50;;;;;;5050468;28;20090;-50
2021/01/04 07:17:13;;;;;;;31.00;18.95;;;8.30;91.80;;;;;;5051357;28;20533;-50
2021/01/04 07:19:58;;;;;;;29.00;19.70;;;8.50;91.40;;;;;;5051231;28;20041;-51
2021/01/04 07:22:24;;;;;;;27.30;18.90;;;8.70;91.30;;;;;;5051217;28;20047;-50
2021/01/04 07:25:07;;;;;;;29.20;18.67;;;8.70;91.00;;;;;;5051319;28;20485;-50
2021/01/04 07:28:14;;;;;;;31.63;19.15;;;8.70;91.30;;;;;;5051472;28;20103;-50
2021/01/04 07:30:52;;;;;;;25.75;18.25;;;8.70;91.50;;;;;;4991911;28;20035;-50
2021/01/04 07:33:41;;;;;;;31.83;21.50;;;8.90;91.00;;;;;;4992242;28;20034;-50
2021/01/04 07:36:19;;;;;;;28.88;19.63;;;9.00;90.70;;;;;;4991653;28;20118;-50
2021/01/04 07:38:51;;;;;;;29.33;19.40;;;9.00;90.70;;;;;;4991713;28;20042;-50
2021/01/04 07:41:28;;;;;;;26.23;19.73;;;9.10;90.80;;;;;;4993611;28;20117;-50
2021/01/04 07:44:23;;;;;;;25.70;18.65;;;9.10;90.80;;;;;;5030095;28;20525;-50
2021/01/04 07:47:01;;;;;;;30.38;20.55;;;9.20;90.90;;;;;;5031038;28;20406;-50
2021/01/04 07:49:56;;;;;;;28.98;21.85;;;9.00;91.30;;;;;;5031111;28;20112;-50
2021/01/04 07:53:04;;;;;;;29.58;21.55;;;9.20;91.50;;;;;;4981816;28;20038;-50
2021/01/04 07:56:27;;;;;;;32.75;23.92;;;9.40;91.20;;;;;;5017048;28;20504;-50
2021/01/04 07:59:14;;;;;;;31.60;22.10;;;9.70;90.60;;;;;;4991438;28;20121;-50
2021/01/04 08:02:12;;;;;;;30.13;21.52;;;9.80;90.70;;;;;;5003939;28;20398;-50
2021/01/04 08:04:48;;;;;;;27.30;20.50;;;10.00;90.30;;;;;;5010959;28;20030;-50
2021/01/04 08:08:10;;;;;;;26.95;20.15;;;10.00;90.20;;;;;;4994773;28;20034;-50
2021/01/04 08:11:03;;;;;;;27.83;19.90;;;10.10;90.10;;;;;;4972338;28;20057;-50
2021/01/04 08:13:57;;;;;;;32.60;27.92;;;10.10;90.40;;;;;;4972062;28;20614;-50
2021/01/04 08:16:44;;;;;;;36.42;30.52;;;10.20;90.40;;;;;;4972131;28;20046;-50
2021/01/04 08:19:13;;;;;;;37.72;29.38;;;10.10;90.10;;;;;;4972203;28;20055;-51
2021/01/04 08:21:47;;;;;;;46.55;31.35;;;10.10;90.30;;;;;;4988428;28;20096;-50
2021/01/04 08:24:22;;;;;;;46.10;31.27;;;10.20;90.20;;;;;;4991560;28;20085;-50
2021/01/04 08:27:00;;;;;;;43.25;29.20;;;10.20;90.10;;;;;;4995465;28;20430;-50
2021/01/04 08:29:28;;;;;;;33.45;24.58;;;10.40;90.10;;;;;;5038150;28;20425;-51
2021/01/04 08:32:21;;;;;;;38.03;26.30;;;10.40;90.10;;;;;;5074250;28;20024;-50
2021/01/04 08:34:48;;;;;;;34.47;25.95;;;10.60;89.60;;;;;;5074158;28;20033;-50
2021/01/04 08:37:31;;;;;;;36.13;26.67;;;10.70;88.70;;;;;;5073586;28;20025;-51
2021/01/04 08:40:18;;;;;;;29.48;21.52;;;10.90;91.90;;;;;;5075473;28;20044;-52
2021/01/04 08:42:43;;;;;;;27.60;19.02;;;11.00;87.90;;;;;;5096644;28;20506;-50
2021/01/04 08:45:15;;;;;;;22.88;18.70;;;11.10;88.50;;;;;;5096889;28;20150;-50
2021/01/04 08:47:51;;;;;;;21.75;17.17;;;11.00;87.70;;;;;;5062090;28;20043;-52
2021/01/04 08:50:23;;;;;;;23.10;18.67;;;10.90;88.00;;;;;;5096723;28;20028;-50
2021/01/04 08:52:55;;;;;;;26.08;19.02;;;11.10;86.90;;;;;;5096108;28;20095;-50
2021/01/04 08:55:30;;;;;;;29.85;22.15;;;11.10;87.60;;;;;;5095402;28;20035;-49
2021/01/04 08:57:56;;;;;;;33.72;24.30;;;11.10;86.70;;;;;;5095206;28;20024;-50
2021/01/04 09:00:30;;;;;;;31.48;22.60;;;11.30;86.90;;;;;;5095334;28;20039;-49
2021/01/04 09:02:56;;;;;;;33.50;23.67;;;11.40;85.90;;;;;;5095438;28;20031;-49
2021/01/04 09:05:36;;;;;;;26.92;20.73;;;11.50;85.30;;;;;;5095076;28;20488;-49
2021/01/04 09:08:03;;;;;;;17.15;13.10;;;11.60;85.60;;;;;;5052176;28;20380;-50
2021/01/04 09:10:49;;;;;;;19.58;13.55;;;11.60;84.80;;;;;;5052374;28;20037;-49
2021/01/04 09:13:31;;;;;;;20.58;14.20;;;11.70;84.70;;;;;;5052329;28;20036;-48
2021/01/04 09:16:07;;;;;;;;;;;11.90;84.60;;;;;;5052810;28;20037;-50
2021/01/04 09:18:43;;;;;;;19.63;14.73;;;11.90;84.00;;;;;;5052192;28;19978;-49
2021/01/04 09:21:33;;;;;;;17.13;12.73;;;12.00;84.20;;;;;;5036185;28;20060;-49
2021/01/04 09:24:15;;;;;;;21.60;15.50;;;12.00;83.60;;;;;;5052129;28;20080;-51
2021/01/04 09:26:42;;;;;;;18.63;14.90;;;11.80;84.30;;;;;;4957579;28;20041;-51
2021/01/04 09:29:08;;;;;;;21.98;16.48;;;11.70;85.00;;;;;;4992599;28;20035;-50
2021/01/04 09:31:33;;;;;;;20.33;15.05;;;11.50;86.00;;;;;;4960261;28;20034;-50
2021/01/04 09:33:59;;;;;;;23.02;16.90;;;11.60;86.00;;;;;;4960152;28;20630;-50
2021/01/04 09:36:25;;;;;;;20.00;15.75;;;11.60;85.90;;;;;;4991439;28;20034;-54
2021/01/04 09:39:05;;;;;;;25.65;16.02;;;11.70;85.20;;;;;;5017595;28;20481;-51
2021/01/04 09:41:31;;;;;;;22.63;16.50;;;11.70;85.70;;;;;;5035149;28;20032;-50
2021/01/04 09:44:06;;;;;;;27.58;17.48;;;11.90;85.90;;;;;;5051883;28;20101;-50
2021/01/04 09:46:59;;;;;;;23.40;16.38;;;12.00;85.10;;;;;;5051680;28;20112;-49
2021/01/04 09:49:29;;;;;;;24.35;16.02;;;12.10;85.10;;;;;;5051584;28;20037;-51
2021/01/04 09:52:18;;;;;;;19.85;14.45;;;12.20;85.20;;;;;;5051804;28;20568;-51
2021/01/04 09:54:49;;;;;;;19.63;14.25;;;11.80;85.10;;;;;;5051645;28;20025;-51
2021/01/04 09:57:24;;;;;;;24.02;14.48;;;11.80;86.20;;;;;;5067855;28;20035;-50
2021/01/04 09:59:52;;;;;;;22.98;15.15;;;11.80;87.00;;;;;;5094017;28;20052;-49
2021/01/04 10:02:25;;;;;;;23.00;16.20;;;11.90;86.50;;;;;;5094398;28;20027;-47
2021/01/04 10:04:51;;;;;;;27.42;19.00;;;12.00;86.10;;;;;;5095099;28;20020;-50
2021/01/04 10:07:28;;;;;;;47.65;32.00;;;12.20;86.40;;;;;;5094736;28;20020;-49
2021/01/04 10:09:55;;;;;;;32.20;23.63;;;12.20;84.70;;;;;;5093439;28;20474;-50
2021/01/04 10:12:24;;;;;;;23.38;18.33;;;12.20;84.60;;;;;;5094992;28;20028;-49
2021/01/04 10:14:56;;;;;;;21.70;16.10;;;12.10;84.80;;;;;;5095316;28;20035;-49
2021/01/04 10:17:54;;;;;;;19.58;14.85;;;12.20;84.30;;;;;;5094082;28;20031;-51
2021/01/04 10:20:31;;;;;;;15.85;12.38;;;12.10;85.20;;;;;;5012392;28;20064;-49
2021/01/04 10:22:58;;;;;;;22.10;13.43;;;12.10;84.50;;;;;;5012649;28;20034;-51
2021/01/04 10:25:32;;;;;;;18.67;13.10;;;12.20;84.60;;;;;;5012645;28;20042;-49
2021/01/04 10:27:59;;;;;;;15.82;11.85;;;12.00;84.60;;;;;;5012530;28;20022;-50
2021/01/04 10:30:26;;;;;;;18.15;11.27;;;12.10;84.60;;;;;;5012529;28;20090;-50
2021/01/04 10:33:26;;;;;;;19.23;12.40;;;12.00;84.90;;;;;;5012754;28;20466;-49
2021/01/04 10:36:14;;;;;;;17.25;11.63;;;12.00;84.90;;;;;;5012288;28;20045;-49
2021/01/04 10:38:59;;;;;;;20.83;14.07;;;12.00;84.40;;;;;;4979538;28;20042;-49
2021/01/04 10:41:30;;;;;;;25.13;18.40;;;12.20;84.40;;;;;;4995490;28;20045;-50
2021/01/04 10:44:24;;;;;;;23.25;14.55;;;12.20;83.90;;;;;;4979664;28;20042;-49
2021/01/04 10:46:56;;;;;;;30.25;18.85;;;12.40;83.70;;;;;;5012152;28;20041;-50
2021/01/04 10:49:28;;;;;;;55.20;31.90;;;12.70;83.80;;;;;;4978766;28;20038;-51
2021/01/04 10:51:55;;;;;;;25.30;18.38;;;13.00;84.30;;;;;;5012255;28;20044;-52
2021/01/04 10:54:43;;;;;;;21.45;14.55;;;12.60;89.30;;;;;;5012258;28;20336;-51
2021/01/04 10:57:12;;;;;;;31.75;18.27;;;12.80;89.10;;;;;;5080308;28;20043;-51
2021/01/04 10:59:43;;;;;;;23.05;14.63;;;12.60;88.80;;;;;;5114296;28;20486;-51
2021/01/04 11:02:09;;;;;;;22.88;16.40;;;12.60;88.50;;;;;;5114405;28;20074;-51
2021/01/04 11:04:36;;;;;;;18.13;12.35;;;12.60;89.30;;;;;;5113970;28;20063;-52
2021/01/04 11:07:14;;;;;;;18.83;12.48;;;12.90;90.10;;;;;;5114302;28;20016;-52
2021/01/04 11:09:41;;;;;;;22.23;17.00;;;12.80;90.40;;;;;;5078152;28;20031;-52
2021/01/04 11:12:23;;;;;;;31.08;20.42;;;12.90;92.00;;;;;;5095404;28;20036;-51
2021/01/04 11:14:57;;;;;;;19.88;14.15;;;13.00;87.80;;;;;;5114482;28;20038;-52
2021/01/04 11:17:29;;;;;;;27.77;15.18;;;;;;;;;;5114167;28;20028;-52
2021/01/04 11:20:06;;;;;;;25.98;17.58;;;13.30;80.40;;;;;;5111005;28;20036;-51
2021/01/04 11:22:32;;;;;;;43.05;26.30;;;13.40;81.30;;;;;;5051100;28;20202;-52
2021/01/04 11:24:58;;;;;;;50.47;31.08;;;13.40;80.70;;;;;;5017902;28;20037;-51
2021/01/04 11:27:24;;;;;;;45.05;30.75;;;13.40;81.40;;;;;;5050907;28;20033;-52
2021/01/04 11:29:50;;;;;;;37.42;22.98;;;13.40;81.70;;;;;;5051234;28;20021;-52
2021/01/04 11:32:17;;;;;;;33.90;23.65;;;13.30;81.30;;;;;;5051216;28;20119;-52
2021/01/04 11:34:49;;;;;;;49.45;32.28;;;13.20;83.10;;;;;;5017458;28;20065;-51
2021/01/04 11:37:16;;;;;;;31.33;25.60;;;13.10;83.80;;;;;;5051084;28;20036;-51
2021/01/04 11:39:42;;;;;;;34.67;26.05;;;13.00;84.40;;;;;;5030823;28;20140;-51
2021/01/04 11:42:08;;;;;;;102.55;54.70;;;12.90;84.20;;;;;;5030784;28;20120;-51
2021/01/04 11:44:34;;;;;;;40.88;26.50;;;13.10;85.30;;;;;;4997980;28;20041;-52
2021/01/04 11:47:00;;;;;;;43.80;35.15;;;13.00;85.50;;;;;;5014427;28;20099;-51
2021/01/04 11:49:26;;;;;;;50.53;38.88;;;13.10;84.60;;;;;;5030688;28;20045;-52
2021/01/04 11:51:53;;;;;;;34.47;27.58;;;13.00;83.90;;;;;;5031251;28;20060;-52
2021/01/04 11:54:19;;;;;;;36.70;27.92;;;13.10;84.60;;;;;;5065298;28;20055;-51
2021/01/04 11:56:46;;;;;;;33.25;27.63;;;13.10;83.00;;;;;;5070450;28;20651;-52
2021/01/04 11:59:12;;;;;;;36.90;26.45;;;13.00;84.20;;;;;;5070800;28;20041;-53
2021/01/04 12:01:38;;;;;;;30.13;23.60;;;13.10;84.20;;;;;;5073975;28;20036;-52
2021/01/04 12:04:05;;;;;;;38.65;28.08;;;13.00;84.10;;;;;;5074792;28;20055;-52
2021/01/04 12:06:30;;;;;;;30.67;23.38;;;13.20;85.60;;;;;;5024344;28;20037;-49
2021/01/04 12:08:56;;;;;;;33.78;25.80;;;13.30;84.20;;;;;;5024799;28;20029;-49
2021/01/04 12:11:23;;;;;;;35.92;27.05;;;13.30;84.30;;;;;;5092053;28;20032;-49
2021/01/04 12:13:50;;;;;;;43.08;29.83;;;13.10;84.60;;;;;;5097346;28;20032;-49
2021/01/04 12:16:16;;;;;;;37.75;30.75;;;13.10;85.00;;;;;;5061581;28;20549;-49
2021/01/04 12:18:42;;;;;;;40.80;30.42;;;13.10;85.30;;;;;;5096370;28;20036;-50
2021/01/04 12:21:08;;;;;;;39.80;30.83;;;13.20;85.00;;;;;;5096899;28;20055;-49
2021/01/04 12:23:34;;;;;;;36.33;27.17;;;13.20;85.10;;;;;;5095115;28;20040;-49
2021/01/04 12:26:00;;;;;;;37.38;25.55;;;12.90;85.80;;;;;;5096864;28;20032;-50
2021/01/04 12:28:25;;;;;;;34.80;25.35;;;12.80;86.00;;;;;;5097171;28;20443;-49
2021/01/04 12:30:51;;;;;;;35.88;24.27;;;12.80;85.90;;;;;;5096878;28;20031;-49
2021/01/04 12:33:17;;;;;;;33.78;25.73;;;12.60;86.60;;;;;;5095524;28;20035;-49
2021/01/04 12:35:43;;;;;;;37.55;26.17;;;12.30;87.00;;;;;;5096835;28;20028;-49
2021/01/04 12:38:09;;;;;;;35.67;25.42;;;12.30;87.30;;;;;;5060619;28;20042;-45
2021/01/04 12:40:35;;;;;;;32.05;23.65;;;12.20;88.30;;;;;;5077116;28;20053;-47
2021/01/04 12:43:02;;;;;;;38.40;27.10;;;12.30;88.40;;;;;;5054308;28;20044;-52
2021/01/04 12:45:31;;;;;;;29.00;21.30;;;12.20;89.00;;;;;;5034197;28;20033;-50
2021/01/04 12:47:57;;;;;;;32.65;22.92;;;12.40;88.40;;;;;;5034321;28;20133;-56
2021/01/04 12:50:23;;;;;;;30.35;21.35;;;12.60;87.40;;;;;;5034586;28;20041;-55
2021/01/04 12:52:49;;;;;;;33.58;20.58;;;12.60;87.00;;;;;;5034064;28;20037;-51
2021/01/04 12:55:20;;;;;;;30.58;20.45;;;12.70;87.10;;;;;;5000892;28;20087;-55
2021/01/04 12:57:47;;;;;;;28.88;19.05;;;12.90;86.50;;;;;;5001119;28;20532;-56
2021/01/04 13:00:19;;;;;;;23.75;17.52;;;12.70;86.70;;;;;;5032426;28;20057;-52
2021/01/04 13:02:45;;;;;;;29.02;19.88;;;12.90;86.10;;;;;;5012225;28;20592;-53
2021/01/04 13:05:11;;;;;;;30.90;21.70;;;12.80;86.50;;;;;;5012895;28;20040;-56
2021/01/04 13:07:37;;;;;;;28.30;21.13;;;12.90;85.50;;;;;;4979936;28;20035;-51
2021/01/04 13:10:03;;;;;;;29.55;20.45;;;12.80;86.70;;;;;;5012797;28;20497;-56
2021/01/04 13:12:29;;;;;;;30.02;21.25;;;12.80;87.30;;;;;;4947452;28;20497;-53
2021/01/04 13:14:55;;;;;;;39.28;24.88;;;12.70;87.00;;;;;;5047455;28;20033;-51
2021/01/04 13:17:20;;;;;;;34.88;22.95;;;12.60;87.80;;;;;;5052389;28;20060;-56
2021/01/04 13:19:46;;;;;;;31.98;22.95;;;12.50;88.30;;;;;;5051892;28;20032;-54
2021/01/04 13:22:12;;;;;;;32.90;23.60;;;12.40;88.80;;;;;;5039628;28;20071;-51
2021/01/04 13:24:37;;;;;;;30.38;22.70;;;12.50;88.60;;;;;;5038647;28;20170;-53